Time;durP1;ratioP1;P1;durP2;ratioP2;P2;SDS_P1;SDS_P2;PMS_P1;PMS_P2;Temp;Humidity;BMP_temperature;BMP_pressure;BME280_temperature;BME280_humidity;BME280_pressure;Samples;Min_cycle;Max_cycle;Signal;HPM_P1;HPM_P2
2023/03/24 00:02:03;;;;;;;2.03;1.48;;;13.20;96.80;;;;;;5026216;28;20498;-74
2023/03/24 00:04:30;;;;;;;1.60;1.50;;;13.20;97.70;;;;;;5013489;28;20513;-76
2023/03/24 00:06:57;;;;;;;2.10;1.35;;;13.20;97.20;;;;;;5018449;28;20457;-76
2023/03/24 00:09:25;;;;;;;2.10;1.60;;;13.20;96.90;;;;;;5007347;28;20420;-75
2023/03/24 00:11:52;;;;;;;2.00;1.43;;;13.20;96.80;;;;;;5029454;28;20421;-75
2023/03/24 00:14:19;;;;;;;1.80;1.50;;;13.20;96.50;;;;;;5020421;28;20436;-77
2023/03/24 00:16:45;;;;;;;2.38;1.50;;;13.20;96.90;;;;;;5013208;28;20574;-75
2023/03/24 00:19:13;;;;;;;1.92;1.73;;;13.20;97.00;;;;;;5025839;28;20442;-75
2023/03/24 00:21:41;;;;;;;3.00;1.70;;;13.20;96.90;;;;;;5025702;28;21011;-74
2023/03/24 00:24:10;;;;;;;3.30;1.63;;;13.20;96.60;;;;;;5024638;28;20912;-75
2023/03/24 00:26:39;;;;;;;2.90;1.75;;;13.20;96.70;;;;;;5027633;28;20851;-75
2023/03/24 00:29:07;;;;;;;1.60;1.50;;;13.20;97.00;;;;;;5023765;28;20487;-75
2023/03/24 00:31:38;;;;;;;2.20;1.80;;;13.20;97.00;;;;;;5024297;28;20481;-74
2023/03/24 00:34:07;;;;;;;1.60;1.38;;;13.30;97.00;;;;;;5015947;28;20497;-75
2023/03/24 00:36:35;;;;;;;2.03;1.63;;;13.20;96.90;;;;;;5038480;28;21049;-75
2023/03/24 00:39:02;;;;;;;1.88;1.60;;;13.30;96.70;;;;;;5034615;28;20495;-75
2023/03/24 00:41:29;;;;;;;1.85;1.55;;;13.30;96.50;;;;;;5019841;28;20427;-76
2023/03/24 00:43:59;;;;;;;2.00;1.65;;;13.30;96.50;;;;;;5023377;28;20438;-75
2023/03/24 00:46:29;;;;;;;1.90;1.60;;;13.40;96.10;;;;;;5020409;28;20504;-74
2023/03/24 00:49:01;;;;;;;2.20;1.70;;;13.40;96.30;;;;;;5008868;28;20640;-75
2023/03/24 00:51:29;;;;;;;2.40;1.83;;;13.40;96.40;;;;;;5025591;28;20476;-77
2023/03/24 00:53:57;;;;;;;1.95;1.70;;;13.40;96.30;;;;;;5022318;28;20530;-76
2023/03/24 00:56:25;;;;;;;2.28;2.08;;;13.40;96.10;;;;;;5020280;28;20435;-76
2023/03/24 00:58:56;;;;;;;2.30;2.03;;;13.40;96.40;;;;;;5025489;28;20442;-75
2023/03/24 01:01:26;;;;;;;2.78;2.05;;;13.40;96.70;;;;;;5013219;28;20420;-75
2023/03/24 01:03:52;;;;;;;2.55;2.35;;;13.40;96.90;;;;;;5019630;28;20422;-74
2023/03/24 01:06:22;;;;;;;3.28;2.30;;;13.40;97.70;;;;;;5013955;28;20537;-74
2023/03/24 01:08:52;;;;;;;2.37;2.17;;;13.40;97.20;;;;;;5019531;28;20593;-75
2023/03/24 01:11:21;;;;;;;3.05;2.22;;;13.40;96.90;;;;;;5019973;28;20496;-74
2023/03/24 01:13:48;;;;;;;3.00;2.20;;;13.40;97.00;;;;;;5021321;28;20440;-74
2023/03/24 01:16:16;;;;;;;2.40;2.20;;;13.40;96.90;;;;;;5024029;28;20435;-74
2023/03/24 01:18:44;;;;;;;2.90;2.60;;;13.50;97.20;;;;;;5027393;28;20544;-75
2023/03/24 01:21:13;;;;;;;2.40;2.20;;;13.50;96.40;;;;;;5020022;28;20440;-75
2023/03/24 01:23:41;;;;;;;2.42;2.22;;;13.50;96.60;;;;;;5020748;28;20543;-74
2023/03/24 01:26:10;;;;;;;2.95;2.28;;;13.50;96.30;;;;;;5018149;28;20892;-76
2023/03/24 01:28:39;;;;;;;2.30;2.10;;;13.50;96.30;;;;;;5020201;28;20536;-74
2023/03/24 01:31:08;;;;;;;2.40;2.17;;;13.60;96.30;;;;;;5017422;28;20528;-75
2023/03/24 01:33:36;;;;;;;2.10;1.90;;;13.50;96.40;;;;;;5011128;28;20414;-75
2023/03/24 01:36:05;;;;;;;2.20;1.70;;;13.50;96.50;;;;;;5023380;28;20577;-74
2023/03/24 01:38:32;;;;;;;2.05;1.80;;;13.50;96.70;;;;;;5026204;28;20438;-74
2023/03/24 01:40:59;;;;;;;1.90;1.80;;;13.50;96.60;;;;;;5024254;28;20461;-75
2023/03/24 01:43:30;;;;;;;2.60;1.90;;;13.50;96.70;;;;;;5023914;28;20454;-75
2023/03/24 01:46:02;;;;;;;2.72;2.20;;;13.50;96.90;;;;;;5024458;28;20510;-74
2023/03/24 01:48:35;;;;;;;2.13;1.92;;;13.50;96.90;;;;;;5014155;28;20433;-73
2023/03/24 01:51:06;;;;;;;2.13;1.93;;;13.60;96.90;;;;;;5014278;28;20438;-74
2023/03/24 01:53:37;;;;;;;2.22;2.03;;;13.50;96.80;;;;;;5005000;28;20527;-74
2023/03/24 01:56:07;;;;;;;2.40;1.90;;;13.60;97.00;;;;;;5021028;28;20435;-75
2023/03/24 01:58:37;;;;;;;2.20;2.00;;;13.50;96.90;;;;;;5023435;28;20514;-74
2023/03/24 02:01:04;;;;;;;3.05;2.20;;;13.60;96.80;;;;;;5011584;28;20851;-74
2023/03/24 02:03:35;;;;;;;2.40;2.20;;;13.60;96.90;;;;;;5025153;28;20434;-74
2023/03/24 02:06:02;;;;;;;2.38;2.17;;;13.70;96.80;;;;;;4993071;28;20514;-77
2023/03/24 02:08:38;;;;;;;2.60;2.40;;;13.70;96.70;;;;;;4997408;28;20512;-77
2023/03/24 02:11:06;;;;;;;2.60;2.40;;;13.70;96.60;;;;;;4999629;28;20544;-77
2023/03/24 02:13:33;;;;;;;2.20;2.00;;;13.70;96.70;;;;;;4996156;28;20970;-75
2023/03/24 02:16:13;;;;;;;2.70;2.50;;;13.70;96.40;;;;;;4991762;28;20446;-74
2023/03/24 02:19:00;;;;;;;2.58;2.10;;;13.80;96.40;;;;;;4991511;28;20623;-77
2023/03/24 02:22:03;;;;;;;2.70;2.50;;;13.80;96.30;;;;;;4996426;28;20766;-74
2023/03/24 02:25:09;;;;;;;3.17;2.40;;;13.80;96.50;;;;;;4979829;28;20435;-74
2023/03/24 02:27:53;;;;;;;2.70;2.40;;;13.80;96.10;;;;;;4991050;28;21507;-74
2023/03/24 02:30:39;;;;;;;2.80;2.60;;;13.80;96.30;;;;;;5001838;28;21231;-76
2023/03/24 02:33:27;;;;;;;3.20;2.88;;;13.80;96.20;;;;;;4989855;28;20524;-75
2023/03/24 02:36:24;;;;;;;2.57;2.37;;;13.80;96.00;;;;;;4990373;28;20522;-77
2023/03/24 02:39:26;;;;;;;2.85;2.55;;;13.80;96.10;;;;;;5001969;28;20423;-78
2023/03/24 02:42:01;;;;;;;2.80;2.50;;;13.80;96.20;;;;;;5002712;28;20423;-74
2023/03/24 02:44:35;;;;;;;2.47;2.27;;;13.90;96.20;;;;;;4998716;28;21833;-75
2023/03/24 02:47:10;;;;;;;3.30;3.00;;;13.90;96.00;;;;;;4999372;28;20445;-75
2023/03/24 02:49:47;;;;;;;2.70;2.50;;;13.90;96.20;;;;;;4995700;28;20445;-78
2023/03/24 02:52:20;;;;;;;2.47;2.28;;;13.90;96.70;;;;;;4995030;28;20533;-76
2023/03/24 02:54:56;;;;;;;3.40;2.60;;;13.90;96.60;;;;;;4995018;28;20435;-77
2023/03/24 02:57:28;;;;;;;2.90;2.60;;;13.90;96.70;;;;;;4994927;28;20506;-75
2023/03/24 02:59:59;;;;;;;3.08;2.80;;;13.80;97.00;;;;;;4997264;28;20450;-76
2023/03/24 03:02:31;;;;;;;2.90;2.70;;;13.80;97.00;;;;;;4999151;28;20495;-76
2023/03/24 03:05:02;;;;;;;2.80;2.60;;;13.80;96.90;;;;;;4998017;28;20499;-76
2023/03/24 03:07:36;;;;;;;3.30;2.85;;;13.70;97.00;;;;;;4997790;28;20426;-74
2023/03/24 03:10:12;;;;;;;2.97;2.60;;;13.70;96.80;;;;;;5009712;28;20484;-75
2023/03/24 03:12:41;;;;;;;2.80;2.50;;;13.80;96.60;;;;;;5005206;28;20445;-77
2023/03/24 03:15:12;;;;;;;2.87;2.60;;;13.80;96.60;;;;;;5011285;28;20419;-78
2023/03/24 03:17:42;;;;;;;3.05;2.83;;;13.80;96.50;;;;;;5001607;28;20449;-78
2023/03/24 03:20:14;;;;;;;2.72;2.53;;;13.80;96.60;;;;;;5007817;28;20960;-75
2023/03/24 03:22:48;;;;;;;2.90;2.58;;;13.80;96.50;;;;;;4996046;28;20490;-78
2023/03/24 03:25:21;;;;;;;3.08;2.55;;;13.90;97.40;;;;;;5011444;28;20542;-74
2023/03/24 03:27:51;;;;;;;4.30;2.67;;;13.80;97.40;;;;;;4995175;28;20437;-75
2023/03/24 03:30:23;;;;;;;2.97;2.78;;;13.80;98.20;;;;;;4999737;28;21407;-75
2023/03/24 03:32:54;;;;;;;3.00;2.80;;;13.70;98.50;;;;;;5001087;28;20415;-74
2023/03/24 03:35:25;;;;;;;3.20;2.90;;;13.70;98.70;;;;;;5004282;28;20483;-74
2023/03/24 03:37:58;;;;;;;2.97;2.78;;;13.60;98.40;;;;;;5003152;28;20435;-73
2023/03/24 03:40:32;;;;;;;3.00;2.50;;;13.60;98.50;;;;;;5002666;28;21205;-79
2023/03/24 03:42:59;;;;;;;3.17;2.80;;;13.60;99.00;;;;;;5009327;28;20410;-75
2023/03/24 03:45:27;;;;;;;2.85;2.65;;;13.60;98.70;;;;;;5004507;28;20453;-78
2023/03/24 03:47:54;;;;;;;3.30;2.60;;;13.60;98.70;;;;;;4997166;28;20435;-77
2023/03/24 03:50:22;;;;;;;3.42;2.50;;;13.70;98.30;;;;;;5008384;28;20488;-78
2023/03/24 03:52:51;;;;;;;3.00;2.70;;;13.80;98.20;;;;;;4999360;28;21265;-73
2023/03/24 03:55:18;;;;;;;2.75;2.55;;;13.80;98.20;;;;;;4998167;28;20526;-76
2023/03/24 03:57:46;;;;;;;2.70;2.50;;;13.80;98.30;;;;;;4993402;28;20446;-77
2023/03/24 04:00:18;;;;;;;2.70;2.50;;;13.80;98.10;;;;;;4998479;28;20448;-77
2023/03/24 04:02:58;;;;;;;2.90;2.70;;;13.70;97.90;;;;;;5002469;28;20423;-72
2023/03/24 04:05:30;;;;;;;2.80;2.60;;;13.80;98.10;;;;;;4997686;28;20493;-77
2023/03/24 04:08:15;;;;;;;2.70;2.50;;;13.80;97.80;;;;;;5001187;28;20666;-74
2023/03/24 04:10:56;;;;;;;2.70;2.50;;;13.80;97.90;;;;;;4997475;28;20442;-76
2023/03/24 04:13:30;;;;;;;2.50;2.30;;;13.80;97.90;;;;;;4998776;28;20464;-74
2023/03/24 04:16:02;;;;;;;3.88;2.40;;;13.80;97.70;;;;;;4999418;28;20544;-74
2023/03/24 04:19:14;;;;;;;2.50;2.30;;;13.80;97.50;;;;;;5009675;28;21164;-75
2023/03/24 04:21:53;;;;;;;2.50;2.30;;;13.90;97.10;;;;;;4980394;28;20435;-74
2023/03/24 04:24:33;;;;;;;2.40;2.20;;;13.80;97.30;;;;;;5002601;28;20917;-76
2023/03/24 04:27:10;;;;;;;2.40;1.90;;;13.80;97.10;;;;;;4992344;28;20430;-75
2023/03/24 04:29:45;;;;;;;2.80;2.50;;;13.90;96.90;;;;;;4994189;28;20771;-76
2023/03/24 04:32:19;;;;;;;3.42;2.03;;;13.90;96.80;;;;;;4999013;28;20500;-78
2023/03/24 04:34:53;;;;;;;2.50;2.30;;;13.90;96.60;;;;;;5007092;28;20428;-78
2023/03/24 04:37:24;;;;;;;2.60;2.22;;;13.90;96.40;;;;;;4993985;28;20438;-75
2023/03/24 04:39:57;;;;;;;2.42;2.22;;;14.00;96.30;;;;;;4993596;28;20417;-77
2023/03/24 04:42:27;;;;;;;2.78;2.30;;;14.00;96.20;;;;;;5000034;28;20991;-75
2023/03/24 04:44:57;;;;;;;3.00;2.40;;;14.00;97.00;;;;;;4993835;28;20417;-76
2023/03/24 04:47:27;;;;;;;2.72;2.10;;;13.90;98.40;;;;;;4991301;28;20960;-75
2023/03/24 04:50:01;;;;;;;3.30;2.40;;;13.80;98.40;;;;;;5003952;28;20430;-74
2023/03/24 04:52:28;;;;;;;2.30;2.10;;;13.70;98.90;;;;;;5002367;28;20467;-75
2023/03/24 04:54:55;;;;;;;2.30;2.10;;;13.50;99.90;;;;;;4990974;28;20541;-75
2023/03/24 04:57:21;;;;;;;3.10;2.58;;;13.30;99.90;;;;;;4995369;28;20524;-75
2023/03/24 04:59:48;;;;;;;5.00;2.20;;;13.10;99.90;;;;;;4995834;28;20430;-75
2023/03/24 05:02:17;;;;;;;3.30;2.00;;;12.70;99.90;;;;;;4993366;28;20541;-76
2023/03/24 05:04:43;;;;;;;1.60;1.30;;;12.10;99.90;;;;;;4994962;28;20772;-74
2023/03/24 05:07:10;;;;;;;2.30;1.30;;;11.80;99.90;;;;;;4989975;28;20551;-74
2023/03/24 05:09:37;;;;;;;1.58;1.45;;;11.50;99.90;;;;;;4990756;28;20870;-73
2023/03/24 05:12:04;;;;;;;2.63;1.80;;;11.40;99.90;;;;;;4997011;28;20461;-77
2023/03/24 05:14:31;;;;;;;1.90;1.30;;;11.30;99.90;;;;;;4993468;28;21556;-74
2023/03/24 05:16:57;;;;;;;2.43;1.60;;;11.20;99.90;;;;;;4993101;28;20430;-74
2023/03/24 05:19:25;;;;;;;2.70;2.10;;;11.20;99.90;;;;;;4995045;28;20789;-73
2023/03/24 05:21:52;;;;;;;2.78;2.00;;;11.20;99.90;;;;;;4992654;28;20490;-77
2023/03/24 05:24:19;;;;;;;3.20;1.90;;;11.20;99.90;;;;;;4990190;28;20958;-77
2023/03/24 05:26:46;;;;;;;2.60;2.00;;;11.20;99.90;;;;;;5038525;22;20672;-68
2023/03/24 05:29:13;;;;;;;2.20;2.00;;;11.20;99.90;;;;;;5028565;28;20438;-69
2023/03/24 05:31:39;;;;;;;3.13;2.53;;;11.20;99.90;;;;;;5047645;28;20439;-72
2023/03/24 05:34:06;;;;;;;3.80;2.50;;;11.30;99.90;;;;;;5051384;28;20419;-67
2023/03/24 05:36:34;;;;;;;3.63;2.60;;;11.30;99.90;;;;;;5036697;28;20441;-67
2023/03/24 05:39:01;;;;;;;2.72;2.20;;;11.30;99.90;;;;;;5018028;28;20799;-67
2023/03/24 05:41:28;;;;;;;2.90;2.30;;;11.40;99.90;;;;;;5022769;28;20880;-67
2023/03/24 05:43:54;;;;;;;4.15;2.00;;;11.40;99.90;;;;;;5010659;28;20853;-66
2023/03/24 05:46:21;;;;;;;2.40;1.90;;;11.40;99.90;;;;;;5029548;28;20413;-67
2023/03/24 05:48:48;;;;;;;3.58;1.90;;;11.40;99.90;;;;;;5021412;28;20562;-67
2023/03/24 05:51:15;;;;;;;2.42;2.22;;;11.50;99.90;;;;;;5038904;28;20939;-67
2023/03/24 05:53:44;;;;;;;3.97;2.10;;;11.50;99.90;;;;;;5074502;28;20430;-68
2023/03/24 05:56:11;;;;;;;2.97;1.90;;;11.50;99.90;;;;;;5062583;28;20516;-67
2023/03/24 05:58:39;;;;;;;2.95;2.08;;;11.40;99.90;;;;;;5059859;28;20486;-68
2023/03/24 06:01:09;;;;;;;3.35;2.40;;;11.40;99.90;;;;;;5053657;28;20488;-68
2023/03/24 06:03:37;;;;;;;2.55;1.90;;;11.40;99.90;;;;;;5054311;28;20907;-67
2023/03/24 06:06:05;;;;;;;2.72;1.75;;;11.30;99.90;;;;;;5054673;28;20477;-67
2023/03/24 06:08:32;;;;;;;3.10;1.80;;;11.40;99.90;;;;;;5076925;28;20523;-67
2023/03/24 06:11:02;;;;;;;2.38;1.70;;;11.40;99.90;;;;;;5055426;28;20491;-66
2023/03/24 06:13:29;;;;;;;3.50;2.20;;;11.40;99.90;;;;;;5047109;28;20809;-68
2023/03/24 06:15:57;;;;;;;3.40;2.00;;;11.40;99.10;;;;;;5070484;28;20934;-70
2023/03/24 06:18:25;;;;;;;4.70;1.75;;;11.40;98.20;;;;;;5064646;28;20434;-68
2023/03/24 06:20:55;;;;;;;5.20;1.92;;;11.30;97.00;;;;;;5070896;28;20440;-72
2023/03/24 06:23:24;;;;;;;3.40;1.83;;;11.30;96.30;;;;;;5086785;28;20479;-73
2023/03/24 06:25:52;;;;;;;5.65;1.80;;;11.20;96.00;;;;;;5056197;28;20437;-72
2023/03/24 06:28:20;;;;;;;4.35;1.90;;;11.20;96.20;;;;;;5067104;28;20419;-71
2023/03/24 06:30:47;;;;;;;4.85;2.42;;;11.20;96.40;;;;;;5064069;28;20441;-72
2023/03/24 06:33:15;;;;;;;4.20;1.90;;;11.20;96.30;;;;;;5068424;28;20437;-71
2023/03/24 06:35:41;;;;;;;5.22;2.30;;;11.20;96.50;;;;;;5056169;28;20440;-72
2023/03/24 06:38:08;;;;;;;3.78;1.80;;;11.20;96.30;;;;;;5059335;28;20427;-71
2023/03/24 06:40:35;;;;;;;5.40;2.00;;;11.20;97.20;;;;;;5055397;28;20423;-71
2023/03/24 06:43:02;;;;;;;3.50;1.60;;;11.20;96.60;;;;;;5063881;28;20411;-71
2023/03/24 06:45:30;;;;;;;4.03;1.50;;;11.30;96.00;;;;;;5050766;28;20439;-73
2023/03/24 06:47:56;;;;;;;4.30;2.50;;;11.30;96.00;;;;;;5059550;28;20460;-71
2023/03/24 06:50:25;;;;;;;5.47;2.30;;;11.30;95.80;;;;;;5074688;28;20468;-71
2023/03/24 06:52:52;;;;;;;4.82;2.63;;;11.30;96.20;;;;;;5067733;28;20462;-71
2023/03/24 06:55:21;;;;;;;5.03;2.30;;;11.20;96.10;;;;;;5060298;28;20960;-72
2023/03/24 06:57:47;;;;;;;5.28;2.60;;;11.20;95.30;;;;;;5065131;28;20432;-71
2023/03/24 07:00:15;;;;;;;5.70;2.83;;;11.10;95.30;;;;;;5059281;28;20438;-70
2023/03/24 07:02:43;;;;;;;6.95;3.20;;;11.10;95.70;;;;;;5069101;28;20437;-70
2023/03/24 07:05:10;;;;;;;7.13;2.90;;;11.00;96.10;;;;;;5056773;28;20434;-70
2023/03/24 07:07:37;;;;;;;5.07;2.47;;;11.00;96.30;;;;;;5063409;28;20417;-71
2023/03/24 07:10:05;;;;;;;5.25;2.10;;;11.00;96.80;;;;;;5055875;28;20436;-71
2023/03/24 07:12:32;;;;;;;4.15;2.75;;;11.00;96.50;;;;;;5051435;28;20429;-71
2023/03/24 07:14:59;;;;;;;5.88;2.80;;;11.00;96.50;;;;;;5062409;28;20422;-72
2023/03/24 07:17:25;;;;;;;4.38;2.50;;;11.00;96.70;;;;;;5058271;28;20474;-71
2023/03/24 07:19:53;;;;;;;4.97;2.67;;;11.00;97.00;;;;;;5065981;28;20431;-71
2023/03/24 07:22:20;;;;;;;5.22;2.20;;;11.00;97.10;;;;;;5055556;28;20435;-71
2023/03/24 07:24:47;;;;;;;4.00;2.20;;;11.00;96.90;;;;;;5052787;28;20429;-71
2023/03/24 07:27:13;;;;;;;4.05;2.00;;;11.00;97.10;;;;;;5056699;28;20431;-71
2023/03/24 07:29:40;;;;;;;4.03;2.25;;;11.00;96.80;;;;;;5060397;28;20469;-71
2023/03/24 07:32:08;;;;;;;4.87;2.33;;;11.00;97.10;;;;;;5055998;28;20527;-70
2023/03/24 07:34:38;;;;;;;6.97;3.00;;;11.00;96.00;;;;;;5054076;28;20438;-71
2023/03/24 07:37:06;;;;;;;5.30;2.00;;;11.00;96.30;;;;;;5058555;28;20429;-71
2023/03/24 07:39:32;;;;;;;5.50;2.60;;;11.00;95.90;;;;;;5061441;28;20429;-71
2023/03/24 07:41:59;;;;;;;6.22;2.40;;;11.10;96.00;;;;;;5060711;28;20487;-73
2023/03/24 07:44:26;;;;;;;5.20;2.30;;;11.20;95.90;;;;;;5060539;28;20429;-73
2023/03/24 07:46:53;;;;;;;5.20;2.40;;;11.20;96.40;;;;;;5069099;28;20439;-72
2023/03/24 07:49:20;;;;;;;5.03;2.33;;;11.20;95.90;;;;;;5087437;28;20436;-72
2023/03/24 07:51:46;;;;;;;7.03;2.92;;;11.30;95.30;;;;;;5059213;28;20429;-71
2023/03/24 07:54:14;;;;;;;6.38;2.63;;;11.30;95.70;;;;;;5055555;28;20443;-71
2023/03/24 07:56:41;;;;;;;6.38;2.75;;;11.30;95.20;;;;;;5059426;28;20431;-72
2023/03/24 07:59:08;;;;;;;6.93;2.60;;;11.30;95.20;;;;;;5060164;28;20423;-71
2023/03/24 08:01:36;;;;;;;5.50;2.60;;;11.40;94.50;;;;;;5065122;28;20439;-71
2023/03/24 08:04:03;;;;;;;7.00;2.95;;;11.40;94.40;;;;;;5073612;28;20503;-72
2023/03/24 08:06:30;;;;;;;6.57;2.97;;;11.40;94.00;;;;;;5070458;28;20482;-71
2023/03/24 08:08:56;;;;;;;6.28;3.28;;;11.50;94.70;;;;;;5059632;28;20414;-71
2023/03/24 08:11:25;;;;;;;6.32;3.25;;;11.60;94.10;;;;;;5066398;28;20425;-72
2023/03/24 08:13:52;;;;;;;5.55;3.40;;;11.70;93.70;;;;;;5057853;28;20493;-71
2023/03/24 08:16:18;;;;;;;8.15;3.30;;;11.80;92.90;;;;;;5064618;28;20776;-71
2023/03/24 08:18:45;;;;;;;5.38;3.35;;;11.80;92.70;;;;;;5069582;28;20427;-72
2023/03/24 08:21:12;;;;;;;4.38;2.83;;;11.80;92.70;;;;;;5063683;28;20436;-72
2023/03/24 08:23:38;;;;;;;7.07;2.90;;;11.90;92.60;;;;;;5059087;28;20419;-72
2023/03/24 08:26:09;;;;;;;6.68;3.88;;;12.00;91.70;;;;;;5067847;28;20435;-71
2023/03/24 08:28:37;;;;;;;6.05;3.40;;;12.00;91.20;;;;;;5068648;28;20484;-72
2023/03/24 08:31:04;;;;;;;4.53;3.10;;;12.20;88.30;;;;;;5065453;28;20430;-71
2023/03/24 08:33:31;;;;;;;5.10;2.90;;;12.30;88.00;;;;;;5057892;28;20433;-72
2023/03/24 08:35:59;;;;;;;7.72;4.20;;;12.60;86.30;;;;;;5059671;28;20828;-71
2023/03/24 08:38:29;;;;;;;5.85;3.50;;;12.90;88.40;;;;;;5064140;28;20436;-70
2023/03/24 08:40:57;;;;;;;6.88;3.05;;;13.20;85.00;;;;;;5071823;28;20890;-69
2023/03/24 08:43:25;;;;;;;5.68;2.90;;;13.50;81.20;;;;;;5067659;28;20922;-70
2023/03/24 08:45:53;;;;;;;6.03;2.70;;;13.30;79.30;;;;;;5066419;28;20463;-69
2023/03/24 08:48:20;;;;;;;6.80;2.90;;;13.10;80.40;;;;;;5067796;28;20423;-71
2023/03/24 08:50:47;;;;;;;6.20;2.90;;;12.80;81.80;;;;;;5056543;28;20433;-70
2023/03/24 08:53:14;;;;;;;7.30;3.30;;;12.80;81.10;;;;;;5059101;28;20438;-68
2023/03/24 08:55:42;;;;;;;6.70;2.60;;;12.90;81.70;;;;;;5068554;28;20419;-69
2023/03/24 08:58:12;;;;;;;5.40;2.43;;;13.10;81.20;;;;;;5054180;28;20532;-70
2023/03/24 09:00:40;;;;;;;6.20;2.90;;;13.30;80.90;;;;;;5061589;28;20431;-69
2023/03/24 09:03:12;;;;;;;4.70;2.60;;;13.50;77.80;;;;;;5081508;28;20426;-70
2023/03/24 09:05:39;;;;;;;4.13;2.35;;;13.60;77.10;;;;;;5081280;28;20437;-68
2023/03/24 09:08:06;;;;;;;7.00;2.70;;;13.70;75.80;;;;;;5075199;28;20482;-69
2023/03/24 09:10:33;;;;;;;7.03;2.80;;;13.70;76.90;;;;;;5085512;28;20492;-70
2023/03/24 09:13:00;;;;;;;6.90;2.80;;;13.70;76.00;;;;;;5078116;28;20409;-70
2023/03/24 09:15:27;;;;;;;6.60;2.30;;;13.90;77.00;;;;;;5071550;28;20452;-71
2023/03/24 09:17:54;;;;;;;6.22;2.50;;;14.00;76.00;;;;;;5062847;28;20435;-71
2023/03/24 09:20:22;;;;;;;6.38;2.05;;;13.90;75.80;;;;;;5079052;28;20429;-71
2023/03/24 09:22:51;;;;;;;5.97;2.40;;;14.00;76.40;;;;;;5062922;28;20518;-71
2023/03/24 09:25:20;;;;;;;4.07;2.05;;;13.90;74.80;;;;;;5058703;28;20433;-70
2023/03/24 09:27:47;;;;;;;10.55;3.10;;;13.90;76.00;;;;;;5065209;28;20926;-70
2023/03/24 09:30:16;;;;;;;5.75;2.30;;;13.90;75.40;;;;;;5069263;28;20438;-70
2023/03/24 09:32:44;;;;;;;7.95;4.93;;;13.80;73.90;;;;;;5067529;28;20431;-66
2023/03/24 09:35:11;;;;;;;7.97;3.20;;;14.00;81.70;;;;;;5060558;28;20431;-66
2023/03/24 09:37:39;;;;;;;4.55;2.20;;;14.00;75.20;;;;;;5056286;28;20444;-69
2023/03/24 09:40:07;;;;;;;5.70;2.80;;;14.10;73.40;;;;;;5058580;28;20454;-69
2023/03/24 09:42:38;;;;;;;4.60;2.35;;;14.10;72.80;;;;;;5061428;28;20431;-69
2023/03/24 09:45:12;;;;;;;7.28;2.38;;;14.10;72.20;;;;;;5060899;28;20427;-69
2023/03/24 09:47:42;;;;;;;7.53;2.80;;;14.10;74.40;;;;;;5062093;28;20417;-68
2023/03/24 09:50:20;;;;;;;7.10;2.70;;;14.20;70.80;;;;;;5056395;28;21040;-68
2023/03/24 09:52:51;;;;;;;5.22;2.40;;;14.20;70.60;;;;;;5060830;28;20433;-67
2023/03/24 09:55:23;;;;;;;6.20;2.60;;;14.10;69.70;;;;;;5069039;28;20444;-67
2023/03/24 09:57:52;;;;;;;5.22;2.10;;;14.40;71.90;;;;;;5068272;28;20420;-67
2023/03/24 10:00:22;;;;;;;7.28;2.78;;;14.80;69.40;;;;;;5054821;28;20906;-72
2023/03/24 10:02:49;;;;;;;5.73;2.50;;;15.10;64.50;;;;;;5077122;28;20433;-67
2023/03/24 10:05:20;;;;;;;6.28;2.72;;;15.20;65.30;;;;;;5083010;28;20403;-68
2023/03/24 10:07:55;;;;;;;4.80;2.40;;;15.50;60.00;;;;;;5071403;28;20489;-70
2023/03/24 10:10:31;;;;;;;5.43;2.42;;;15.60;60.10;;;;;;5084003;28;20424;-67
2023/03/24 10:13:05;;;;;;;5.50;2.78;;;15.70;57.50;;;;;;5071970;28;20437;-68
2023/03/24 10:15:37;;;;;;;6.60;2.53;;;15.90;59.30;;;;;;5072443;28;20416;-68
2023/03/24 10:18:22;;;;;;;6.67;2.70;;;16.20;59.00;;;;;;5058904;28;20506;-67
2023/03/24 10:20:54;;;;;;;5.72;2.60;;;16.20;59.40;;;;;;5060169;28;20431;-67
2023/03/24 10:23:33;;;;;;;7.07;2.50;;;16.00;57.70;;;;;;5065747;28;20513;-67
2023/03/24 10:26:07;;;;;;;7.22;2.70;;;15.40;59.30;;;;;;5048071;28;20432;-71
2023/03/24 10:28:40;;;;;;;5.10;2.15;;;15.20;61.40;;;;;;5061315;28;20766;-67
2023/03/24 10:31:11;;;;;;;4.80;2.22;;;15.00;62.50;;;;;;5049410;28;20417;-67
2023/03/24 10:33:41;;;;;;;4.88;2.30;;;14.90;62.00;;;;;;5048980;28;20413;-67
2023/03/24 10:36:12;;;;;;;5.25;2.15;;;14.70;63.70;;;;;;5060601;28;20455;-68
2023/03/24 10:38:41;;;;;;;5.50;2.50;;;14.60;64.80;;;;;;5057331;28;20444;-67
2023/03/24 10:41:15;;;;;;;6.70;2.90;;;14.50;65.30;;;;;;5064981;28;20448;-67
2023/03/24 10:43:43;;;;;;;4.80;2.40;;;14.50;65.80;;;;;;5057602;28;20465;-68
2023/03/24 10:46:13;;;;;;;6.57;2.40;;;14.50;65.90;;;;;;5063228;28;20413;-68
2023/03/24 10:48:45;;;;;;;7.38;2.50;;;14.60;65.80;;;;;;5054017;28;20424;-67
2023/03/24 10:51:17;;;;;;;5.65;2.30;;;14.60;65.00;;;;;;5063155;28;20492;-72
2023/03/24 10:53:47;;;;;;;5.67;2.00;;;14.60;64.50;;;;;;5080609;28;20417;-67
2023/03/24 10:56:17;;;;;;;5.00;1.95;;;14.40;65.70;;;;;;5079603;28;20424;-67
2023/03/24 10:58:46;;;;;;;5.00;1.90;;;14.20;65.70;;;;;;5087313;28;20407;-67
2023/03/24 11:01:26;;;;;;;4.65;2.00;;;14.20;66.10;;;;;;5078638;28;20442;-67
2023/03/24 11:03:58;;;;;;;5.57;1.77;;;14.30;67.40;;;;;;5072688;28;20721;-67
2023/03/24 11:06:24;;;;;;;5.65;2.15;;;14.30;64.90;;;;;;5074718;28;20412;-68
2023/03/24 11:09:09;;;;;;;5.40;2.10;;;14.30;64.70;;;;;;5063493;28;20412;-68
2023/03/24 11:11:35;;;;;;;6.32;1.90;;;14.20;65.70;;;;;;5055165;28;20417;-67
2023/03/24 11:14:03;;;;;;;6.95;2.00;;;14.20;65.40;;;;;;5059249;28;20427;-67
2023/03/24 11:16:32;;;;;;;4.38;2.10;;;14.20;65.00;;;;;;5058695;28;20419;-67
2023/03/24 11:19:00;;;;;;;4.38;1.98;;;14.20;64.60;;;;;;5068289;28;20427;-67
2023/03/24 11:21:28;;;;;;;4.30;1.63;;;14.30;64.40;;;;;;5064867;28;20810;-67
2023/03/24 11:23:58;;;;;;;5.72;1.70;;;14.40;63.40;;;;;;5053374;28;20432;-67
2023/03/24 11:26:32;;;;;;;5.43;1.95;;;14.50;62.80;;;;;;5087410;22;20542;-73
2023/03/24 11:29:02;;;;;;;3.55;1.80;;;14.90;61.30;;;;;;5055873;28;20512;-72
2023/03/24 11:31:30;;;;;;;5.35;1.88;;;15.20;61.30;;;;;;5066728;28;20439;-74
2023/03/24 11:34:00;;;;;;;5.47;1.90;;;15.60;59.90;;;;;;5060103;28;20454;-74
2023/03/24 11:36:52;;;;;;;3.30;1.70;;;15.90;56.10;;;;;;5068960;28;20498;-74
2023/03/24 11:39:22;;;;;;;3.70;1.50;;;16.30;55.60;;;;;;5060885;28;20423;-73
2023/03/24 11:42:17;;;;;;;6.30;1.65;;;16.40;53.40;;;;;;5055350;28;20445;-72
2023/03/24 11:44:50;;;;;;;3.55;1.60;;;16.30;52.00;;;;;;5058560;28;20461;-75
2023/03/24 11:47:23;;;;;;;2.63;1.30;;;16.20;52.20;;;;;;5053025;28;20431;-74
2023/03/24 11:49:56;;;;;;;4.28;1.90;;;16.30;52.80;;;;;;5063788;28;20431;-73
2023/03/24 11:52:28;;;;;;;4.78;1.70;;;16.30;51.90;;;;;;5059533;28;21117;-74
2023/03/24 11:54:55;;;;;;;4.30;1.50;;;16.20;53.60;;;;;;5057521;28;20521;-75
2023/03/24 11:57:38;;;;;;;2.70;1.40;;;16.10;53.40;;;;;;5055091;28;20434;-73
2023/03/24 12:00:14;;;;;;;4.25;1.98;;;16.30;53.80;;;;;;5075156;28;20428;-63
2023/03/24 12:02:57;;;;;;;4.68;1.80;;;16.70;54.20;;;;;;5051229;28;20512;-65
2023/03/24 12:05:33;;;;;;;5.30;1.75;;;17.00;53.20;;;;;;5055435;28;20425;-64
2023/03/24 12:08:11;;;;;;;3.03;1.60;;;17.00;51.00;;;;;;5052745;28;20529;-64
2023/03/24 12:10:48;;;;;;;3.83;1.83;;;16.90;51.30;;;;;;5048870;28;20430;-61
2023/03/24 12:13:21;;;;;;;4.97;1.38;;;17.10;50.80;;;;;;5058573;28;20433;-62
2023/03/24 12:15:59;;;;;;;3.67;1.10;;;17.30;48.10;;;;;;5060905;28;20428;-70
2023/03/24 12:19:01;;;;;;;3.40;1.40;;;17.10;47.40;;;;;;5062592;28;20458;-71
2023/03/24 12:21:41;;;;;;;4.50;1.60;;;17.00;48.20;;;;;;5060325;28;20435;-71
2023/03/24 12:24:20;;;;;;;3.22;1.45;;;17.10;48.70;;;;;;5079669;28;20451;-71
2023/03/24 12:26:49;;;;;;;3.20;1.30;;;17.30;47.10;;;;;;5047711;28;20524;-71
2023/03/24 12:29:37;;;;;;;4.65;1.70;;;17.40;47.60;;;;;;5072116;28;20781;-71
2023/03/24 12:32:15;;;;;;;3.75;1.40;;;17.40;46.80;;;;;;5058505;28;20433;-72
2023/03/24 12:35:08;;;;;;;3.03;1.30;;;17.60;46.70;;;;;;5062221;28;20435;-72
2023/03/24 12:37:47;;;;;;;3.40;1.40;;;17.70;47.00;;;;;;5062741;28;20460;-72
2023/03/24 12:40:48;;;;;;;4.55;1.30;;;17.80;46.20;;;;;;5044285;28;20429;-71
2023/03/24 12:43:30;;;;;;;2.50;1.30;;;17.80;45.00;;;;;;5053566;28;20534;-71
2023/03/24 12:46:06;;;;;;;3.08;1.40;;;17.70;44.70;;;;;;5048722;28;20442;-71
2023/03/24 12:48:52;;;;;;;3.60;1.38;;;17.60;44.90;;;;;;5063528;28;20886;-69
2023/03/24 12:51:27;;;;;;;4.00;1.47;;;18.10;44.50;;;;;;5055943;28;20862;-69
2023/03/24 12:54:06;;;;;;;4.80;1.60;;;18.60;44.50;;;;;;5064669;28;20918;-71
2023/03/24 12:56:38;;;;;;;3.50;1.27;;;19.20;41.90;;;;;;5062406;28;20442;-71
2023/03/24 12:59:10;;;;;;;4.33;1.40;;;19.30;42.60;;;;;;5061567;28;20554;-70
2023/03/24 13:01:42;;;;;;;2.97;1.30;;;18.90;41.50;;;;;;5061657;28;20435;-69
2023/03/24 13:04:15;;;;;;;4.25;1.80;;;18.20;42.80;;;;;;5061060;28;20423;-72
2023/03/24 13:06:48;;;;;;;2.78;0.90;;;18.40;43.20;;;;;;5050101;28;20431;-70
2023/03/24 13:09:24;;;;;;;2.97;1.30;;;18.60;42.50;;;;;;5052386;28;20712;-70